sensor_id;sensor_type;location;lat;lon;timestamp;temperature;humidity
47532;DHT22;33273;52.254;7.988;2023-03-23T00:01:53;10.80;99.90
47532;DHT22;33273;52.254;7.988;2023-03-23T00:04:19;10.80;99.90
47532;DHT22;33273;52.254;7.988;2023-03-23T00:06:48;10.80;99.90
47532;DHT22;33273;52.254;7.988;2023-03-23T00:09:15;10.80;99.90
47532;DHT22;33273;52.254;7.988;2023-03-23T00:11:41;10.80;99.90
47532;DHT22;33273;52.254;7.988;2023-03-23T00:14:08;10.80;99.90
47532;DHT22;33273;52.254;7.988;2023-03-23T00:16:39;10.70;99.90
47532;DHT22;33273;52.254;7.988;2023-03-23T00:19:13;10.80;99.90
47532;DHT22;33273;52.254;7.988;2023-03-23T00:21:39;10.80;99.90
47532;DHT22;33273;52.254;7.988;2023-03-23T00:24:11;10.80;99.90
47532;DHT22;33273;52.254;7.988;2023-03-23T00:26:39;10.80;99.90
47532;DHT22;33273;52.254;7.988;2023-03-23T00:29:15;10.80;99.90
47532;DHT22;33273;52.254;7.988;2023-03-23T00:31:42;10.80;99.90
47532;DHT22;33273;52.254;7.988;2023-03-23T00:34:13;10.80;99.90
47532;DHT22;33273;52.254;7.988;2023-03-23T00:36:48;10.80;99.90
47532;DHT22;33273;52.254;7.988;2023-03-23T00:39:16;10.70;99.90
47532;DHT22;33273;52.254;7.988;2023-03-23T00:41:43;10.70;99.90
47532;DHT22;33273;52.254;7.988;2023-03-23T00:44:10;10.70;99.90
47532;DHT22;33273;52.254;7.988;2023-03-23T00:46:36;10.80;99.90
47532;DHT22;33273;52.254;7.988;2023-03-23T00:49:13;10.70;99.90
47532;DHT22;33273;52.254;7.988;2023-03-23T00:51:39;10.70;99.90
47532;DHT22;33273;52.254;7.988;2023-03-23T00:54:05;10.80;99.90
47532;DHT22;33273;52.254;7.988;2023-03-23T00:56:31;10.70;99.90
47532;DHT22;33273;52.254;7.988;2023-03-23T00:58:57;10.70;99.90
47532;DHT22;33273;52.254;7.988;2023-03-23T01:01:23;10.70;99.90
47532;DHT22;33273;52.254;7.988;2023-03-23T01:03:49;10.70;99.90
47532;DHT22;33273;52.254;7.988;2023-03-23T01:06:15;10.70;99.90
47532;DHT22;33273;52.254;7.988;2023-03-23T01:08:44;10.70;99.90
47532;DHT22;33273;52.254;7.988;2023-03-23T01:11:13;10.70;99.90
47532;DHT22;33273;52.254;7.988;2023-03-23T01:13:40;10.60;99.90
47532;DHT22;33273;52.254;7.988;2023-03-23T01:16:07;10.70;99.90
47532;DHT22;33273;52.254;7.988;2023-03-23T01:18:33;10.70;99.90
47532;DHT22;33273;52.254;7.988;2023-03-23T01:21:03;10.70;99.90
47532;DHT22;33273;52.254;7.988;2023-03-23T01:23:29;10.70;99.90
47532;DHT22;33273;52.254;7.988;2023-03-23T01:25:55;10.70;99.90
47532;DHT22;33273;52.254;7.988;2023-03-23T01:28:23;10.70;99.90
47532;DHT22;33273;52.254;7.988;2023-03-23T01:30:49;10.70;99.90
47532;DHT22;33273;52.254;7.988;2023-03-23T01:33:15;10.70;99.90
47532;DHT22;33273;52.254;7.988;2023-03-23T01:35:42;10.70;99.90
47532;DHT22;33273;52.254;7.988;2023-03-23T01:38:11;10.70;99.90
47532;DHT22;33273;52.254;7.988;2023-03-23T01:40:37;10.70;99.90
47532;DHT22;33273;52.254;7.988;2023-03-23T01:43:02;10.70;99.90
47532;DHT22;33273;52.254;7.988;2023-03-23T01:45:29;10.70;99.90
47532;DHT22;33273;52.254;7.988;2023-03-23T01:47:57;10.70;99.90
47532;DHT22;33273;52.254;7.988;2023-03-23T01:50:25;10.60;99.90
47532;DHT22;33273;52.254;7.988;2023-03-23T01:52:54;10.70;99.90
47532;DHT22;33273;52.254;7.988;2023-03-23T01:55:21;10.70;99.90
47532;DHT22;33273;52.254;7.988;2023-03-23T01:57:48;10.70;99.90
47532;DHT22;33273;52.254;7.988;2023-03-23T02:00:15;10.70;99.90
47532;DHT22;33273;52.254;7.988;2023-03-23T02:02:48;10.70;99.90
47532;DHT22;33273;52.254;7.988;2023-03-23T02:05:38;10.70;99.90
47532;DHT22;33273;52.254;7.988;2023-03-23T02:08:10;10.70;99.90
47532;DHT22;33273;52.254;7.988;2023-03-23T02:10:37;10.70;99.90
47532;DHT22;33273;52.254;7.988;2023-03-23T02:13:05;10.70;99.90
47532;DHT22;33273;52.254;7.988;2023-03-23T02:15:37;10.70;99.90
47532;DHT22;33273;52.254;7.988;2023-03-23T02:18:09;10.70;99.90
47532;DHT22;33273;52.254;7.988;2023-03-23T02:33:40;10.70;99.90
47532;DHT22;33273;52.254;7.988;2023-03-23T02:38:49;10.70;99.90
47532;DHT22;33273;52.254;7.988;2023-03-23T02:41:18;10.70;99.90
47532;DHT22;33273;52.254;7.988;2023-03-23T02:43:45;10.70;99.90
47532;DHT22;33273;52.254;7.988;2023-03-23T02:46:11;10.70;99.90
47532;DHT22;33273;52.254;7.988;2023-03-23T02:48:38;10.70;99.90
47532;DHT22;33273;52.254;7.988;2023-03-23T02:51:05;10.70;99.90
47532;DHT22;33273;52.254;7.988;2023-03-23T02:53:33;10.70;99.90
47532;DHT22;33273;52.254;7.988;2023-03-23T02:56:00;10.70;99.90
47532;DHT22;33273;52.254;7.988;2023-03-23T02:58:29;10.80;99.90
47532;DHT22;33273;52.254;7.988;2023-03-23T03:00:56;10.70;99.90
47532;DHT22;33273;52.254;7.988;2023-03-23T03:03:28;10.80;99.90
47532;DHT22;33273;52.254;7.988;2023-03-23T03:08:45;10.80;99.90
47532;DHT22;33273;52.254;7.988;2023-03-23T03:11:13;10.80;99.90
47532;DHT22;33273;52.254;7.988;2023-03-23T03:13:44;10.80;99.90
47532;DHT22;33273;52.254;7.988;2023-03-23T03:21:15;10.80;99.90
47532;DHT22;33273;52.254;7.988;2023-03-23T03:23:44;10.80;99.90
47532;DHT22;33273;52.254;7.988;2023-03-23T03:26:11;10.80;99.90
47532;DHT22;33273;52.254;7.988;2023-03-23T03:28:47;10.80;99.90
47532;DHT22;33273;52.254;7.988;2023-03-23T03:31:15;10.90;99.90
47532;DHT22;33273;52.254;7.988;2023-03-23T03:33:43;10.80;99.90
47532;DHT22;33273;52.254;7.988;2023-03-23T03:36:13;10.80;99.90
47532;DHT22;33273;52.254;7.988;2023-03-23T03:38:43;10.80;99.90
47532;DHT22;33273;52.254;7.988;2023-03-23T03:41:09;10.80;99.90
47532;DHT22;33273;52.254;7.988;2023-03-23T03:43:35;10.80;99.90
47532;DHT22;33273;52.254;7.988;2023-03-23T03:46:03;10.80;99.90
47532;DHT22;33273;52.254;7.988;2023-03-23T03:48:29;10.80;99.90
47532;DHT22;33273;52.254;7.988;2023-03-23T03:50:55;10.90;99.90
47532;DHT22;33273;52.254;7.988;2023-03-23T03:53:28;10.90;99.90
47532;DHT22;33273;52.254;7.988;2023-03-23T03:55:56;10.80;99.90
47532;DHT22;33273;52.254;7.988;2023-03-23T03:58:26;10.90;99.90
47532;DHT22;33273;52.254;7.988;2023-03-23T04:01:12;10.80;99.70
47532;DHT22;33273;52.254;7.988;2023-03-23T04:03:39;10.90;99.30
47532;DHT22;33273;52.254;7.988;2023-03-23T04:06:11;10.90;98.90
47532;DHT22;33273;52.254;7.988;2023-03-23T04:08:39;10.90;98.60
47532;DHT22;33273;52.254;7.988;2023-03-23T04:11:07;10.90;98.10
47532;DHT22;33273;52.254;7.988;2023-03-23T04:13:33;10.90;98.00
47532;DHT22;33273;52.254;7.988;2023-03-23T04:16:07;10.90;98.10
47532;DHT22;33273;52.254;7.988;2023-03-23T04:18:34;10.90;98.20
47532;DHT22;33273;52.254;7.988;2023-03-23T04:21:00;10.90;98.30
47532;DHT22;33273;52.254;7.988;2023-03-23T04:23:28;11.00;98.50
47532;DHT22;33273;52.254;7.988;2023-03-23T04:25:56;11.00;98.60
47532;DHT22;33273;52.254;7.988;2023-03-23T04:28:32;11.00;98.80
47532;DHT22;33273;52.254;7.988;2023-03-23T04:31:17;11.00;98.60
47532;DHT22;33273;52.254;7.988;2023-03-23T04:33:48;11.00;98.60
47532;DHT22;33273;52.254;7.988;2023-03-23T04:36:14;11.00;98.90
47532;DHT22;33273;52.254;7.988;2023-03-23T04:38:50;11.00;98.90
47532;DHT22;33273;52.254;7.988;2023-03-23T04:41:22;11.00;99.10
47532;DHT22;33273;52.254;7.988;2023-03-23T04:44:11;11.00;99.10
47532;DHT22;33273;52.254;7.988;2023-03-23T04:46:49;11.00;99.00
47532;DHT22;33273;52.254;7.988;2023-03-23T04:49:18;11.10;99.40
47532;DHT22;33273;52.254;7.988;2023-03-23T04:51:48;11.00;99.40
47532;DHT22;33273;52.254;7.988;2023-03-23T04:54:23;11.10;99.50
47532;DHT22;33273;52.254;7.988;2023-03-23T04:56:53;11.10;99.50
47532;DHT22;33273;52.254;7.988;2023-03-23T04:59:19;11.10;99.70
47532;DHT22;33273;52.254;7.988;2023-03-23T05:02:11;11.10;99.50
47532;DHT22;33273;52.254;7.988;2023-03-23T05:04:39;11.10;99.70
47532;DHT22;33273;52.254;7.988;2023-03-23T05:07:12;11.10;99.70
47532;DHT22;33273;52.254;7.988;2023-03-23T05:09:46;11.10;99.70
47532;DHT22;33273;52.254;7.988;2023-03-23T05:12:12;11.10;99.60
47532;DHT22;33273;52.254;7.988;2023-03-23T05:14:52;11.20;99.30
47532;DHT22;33273;52.254;7.988;2023-03-23T05:17:20;11.20;99.30
47532;DHT22;33273;52.254;7.988;2023-03-23T05:19:51;11.20;99.30
47532;DHT22;33273;52.254;7.988;2023-03-23T05:22:38;11.20;99.10
47532;DHT22;33273;52.254;7.988;2023-03-23T05:25:06;11.20;99.00
47532;DHT22;33273;52.254;7.988;2023-03-23T05:27:37;11.20;99.00
47532;DHT22;33273;52.254;7.988;2023-03-23T05:30:16;11.20;99.00
47532;DHT22;33273;52.254;7.988;2023-03-23T05:32:43;11.20;99.00
47532;DHT22;33273;52.254;7.988;2023-03-23T05:35:29;11.20;99.00
47532;DHT22;33273;52.254;7.988;2023-03-23T05:37:55;11.20;99.00
47532;DHT22;33273;52.254;7.988;2023-03-23T05:40:24;11.20;99.00
47532;DHT22;33273;52.254;7.988;2023-03-23T05:42:56;11.20;98.80
47532;DHT22;33273;52.254;7.988;2023-03-23T05:45:38;11.20;98.90
47532;DHT22;33273;52.254;7.988;2023-03-23T05:48:04;11.20;99.10
47532;DHT22;33273;52.254;7.988;2023-03-23T05:50:30;11.30;98.80
47532;DHT22;33273;52.254;7.988;2023-03-23T05:52:58;11.30;98.50
47532;DHT22;33273;52.254;7.988;2023-03-23T05:55:24;11.30;98.30
47532;DHT22;33273;52.254;7.988;2023-03-23T05:58:02;11.30;98.30
47532;DHT22;33273;52.254;7.988;2023-03-23T06:00:32;11.30;98.20
47532;DHT22;33273;52.254;7.988;2023-03-23T06:03:25;11.30;97.70
47532;DHT22;33273;52.254;7.988;2023-03-23T06:05:58;11.30;97.30
47532;DHT22;33273;52.254;7.988;2023-03-23T06:08:32;11.30;97.20
47532;DHT22;33273;52.254;7.988;2023-03-23T06:10:59;11.30;96.90
47532;DHT22;33273;52.254;7.988;2023-03-23T06:13:29;11.30;97.10
47532;DHT22;33273;52.254;7.988;2023-03-23T06:16:02;11.30;96.90
47532;DHT22;33273;52.254;7.988;2023-03-23T06:18:40;11.30;96.50
47532;DHT22;33273;52.254;7.988;2023-03-23T06:21:20;11.40;97.10
47532;DHT22;33273;52.254;7.988;2023-03-23T06:24:10;11.40;96.60
47532;DHT22;33273;52.254;7.988;2023-03-23T06:26:37;11.40;96.00
47532;DHT22;33273;52.254;7.988;2023-03-23T06:29:08;11.40;95.60
47532;DHT22;33273;52.254;7.988;2023-03-23T06:31:43;11.50;95.50
47532;DHT22;33273;52.254;7.988;2023-03-23T06:34:11;11.50;95.50
47532;DHT22;33273;52.254;7.988;2023-03-23T06:37:06;11.50;95.50
47532;DHT22;33273;52.254;7.988;2023-03-23T06:39:37;11.60;94.90
47532;DHT22;33273;52.254;7.988;2023-03-23T06:42:24;11.60;94.40
47532;DHT22;33273;52.254;7.988;2023-03-23T06:45:03;11.60;94.10
47532;DHT22;33273;52.254;7.988;2023-03-23T06:47:31;11.60;93.80
47532;DHT22;33273;52.254;7.988;2023-03-23T06:49:57;11.70;93.60
47532;DHT22;33273;52.254;7.988;2023-03-23T06:52:27;11.70;93.60
47532;DHT22;33273;52.254;7.988;2023-03-23T06:54:53;11.70;93.90
47532;DHT22;33273;52.254;7.988;2023-03-23T06:57:28;11.80;94.20
47532;DHT22;33273;52.254;7.988;2023-03-23T07:00:00;11.90;93.80
47532;DHT22;33273;52.254;7.988;2023-03-23T07:02:30;12.00;94.60
47532;DHT22;33273;52.254;7.988;2023-03-23T07:05:05;12.20;95.80
47532;DHT22;33273;52.254;7.988;2023-03-23T07:07:32;12.40;91.40
47532;DHT22;33273;52.254;7.988;2023-03-23T07:10:16;12.60;91.00
47532;DHT22;33273;52.254;7.988;2023-03-23T07:12:42;12.80;90.10
47532;DHT22;33273;52.254;7.988;2023-03-23T07:15:10;12.80;86.30
47532;DHT22;33273;52.254;7.988;2023-03-23T07:17:39;12.90;83.80
47532;DHT22;33273;52.254;7.988;2023-03-23T07:20:25;12.90;80.40
47532;DHT22;33273;52.254;7.988;2023-03-23T07:22:53;12.80;79.60
47532;DHT22;33273;52.254;7.988;2023-03-23T07:25:44;12.80;78.40
47532;DHT22;33273;52.254;7.988;2023-03-23T07:28:37;12.80;78.20
47532;DHT22;33273;52.254;7.988;2023-03-23T07:31:26;12.80;77.30
47532;DHT22;33273;52.254;7.988;2023-03-23T07:33:53;12.80;76.80
47532;DHT22;33273;52.254;7.988;2023-03-23T07:36:21;12.80;76.40
47532;DHT22;33273;52.254;7.988;2023-03-23T07:38:47;12.90;75.80
47532;DHT22;33273;52.254;7.988;2023-03-23T07:41:15;12.90;75.30
47532;DHT22;33273;52.254;7.988;2023-03-23T07:43:42;13.00;74.30
47532;DHT22;33273;52.254;7.988;2023-03-23T07:46:34;13.00;73.30
47532;DHT22;33273;52.254;7.988;2023-03-23T07:49:13;13.00;72.20
47532;DHT22;33273;52.254;7.988;2023-03-23T07:51:48;13.10;72.80
47532;DHT22;33273;52.254;7.988;2023-03-23T07:54:16;13.10;71.40
47532;DHT22;33273;52.254;7.988;2023-03-23T07:57:08;13.10;70.90
47532;DHT22;33273;52.254;7.988;2023-03-23T07:59:38;13.10;70.90
47532;DHT22;33273;52.254;7.988;2023-03-23T08:02:04;13.00;71.10
47532;DHT22;33273;52.254;7.988;2023-03-23T08:04:41;13.00;70.40
47532;DHT22;33273;52.254;7.988;2023-03-23T08:07:24;13.00;70.70
47532;DHT22;33273;52.254;7.988;2023-03-23T08:09:56;13.00;70.00
47532;DHT22;33273;52.254;7.988;2023-03-23T08:12:22;13.00;70.20
47532;DHT22;33273;52.254;7.988;2023-03-23T08:15:07;13.00;70.00
47532;DHT22;33273;52.254;7.988;2023-03-23T08:17:59;13.00;69.90
47532;DHT22;33273;52.254;7.988;2023-03-23T08:21:05;12.90;70.40
47532;DHT22;33273;52.254;7.988;2023-03-23T08:23:46;12.90;70.90
47532;DHT22;33273;52.254;7.988;2023-03-23T08:26:39;12.90;70.80
47532;DHT22;33273;52.254;7.988;2023-03-23T08:29:23;12.90;70.70
47532;DHT22;33273;52.254;7.988;2023-03-23T08:32:25;12.80;70.10
47532;DHT22;33273;52.254;7.988;2023-03-23T08:35:00;12.80;70.40
47532;DHT22;33273;52.254;7.988;2023-03-23T08:37:26;12.80;70.70
47532;DHT22;33273;52.254;7.988;2023-03-23T08:40:03;12.80;71.20
47532;DHT22;33273;52.254;7.988;2023-03-23T08:42:58;12.70;71.30
47532;DHT22;33273;52.254;7.988;2023-03-23T08:45:30;12.70;71.60
47532;DHT22;33273;52.254;7.988;2023-03-23T08:48:02;12.70;71.60
47532;DHT22;33273;52.254;7.988;2023-03-23T08:50:41;12.90;72.60
47532;DHT22;33273;52.254;7.988;2023-03-23T08:53:07;13.00;71.60
47532;DHT22;33273;52.254;7.988;2023-03-23T08:55:53;13.00;70.60
47532;DHT22;33273;52.254;7.988;2023-03-23T08:58:36;13.10;70.30
47532;DHT22;33273;52.254;7.988;2023-03-23T09:01:31;13.20;70.40
47532;DHT22;33273;52.254;7.988;2023-03-23T09:04:20;13.20;69.10
47532;DHT22;33273;52.254;7.988;2023-03-23T09:07:14;13.10;69.60
47532;DHT22;33273;52.254;7.988;2023-03-23T09:09:41;13.10;69.90
47532;DHT22;33273;52.254;7.988;2023-03-23T09:12:14;13.10;70.50
47532;DHT22;33273;52.254;7.988;2023-03-23T09:14:40;13.10;70.90
47532;DHT22;33273;52.254;7.988;2023-03-23T09:17:06;13.10;71.40
47532;DHT22;33273;52.254;7.988;2023-03-23T09:19:32;13.10;72.40
47532;DHT22;33273;52.254;7.988;2023-03-23T09:21:59;13.00;71.80
47532;DHT22;33273;52.254;7.988;2023-03-23T09:24:26;12.90;72.50
47532;DHT22;33273;52.254;7.988;2023-03-23T09:26:55;12.90;73.20
47532;DHT22;33273;52.254;7.988;2023-03-23T09:29:25;12.90;74.70
47532;DHT22;33273;52.254;7.988;2023-03-23T09:31:53;12.90;75.60
47532;DHT22;33273;52.254;7.988;2023-03-23T09:34:19;12.90;76.50
47532;DHT22;33273;52.254;7.988;2023-03-23T09:36:45;12.90;74.60
47532;DHT22;33273;52.254;7.988;2023-03-23T09:39:12;12.90;73.80
47532;DHT22;33273;52.254;7.988;2023-03-23T09:49:46;12.60;76.70
47532;DHT22;33273;52.254;7.988;2023-03-23T09:52:16;12.50;79.20
47532;DHT22;33273;52.254;7.988;2023-03-23T09:54:53;12.30;83.60
47532;DHT22;33273;52.254;7.988;2023-03-23T09:57:49;12.10;88.50
47532;DHT22;33273;52.254;7.988;2023-03-23T10:03:16;11.70;92.10
47532;DHT22;33273;52.254;7.988;2023-03-23T10:05:48;11.60;94.80
47532;DHT22;33273;52.254;7.988;2023-03-23T10:13:24;11.40;94.40
47532;DHT22;33273;52.254;7.988;2023-03-23T10:15:55;11.30;94.70
47532;DHT22;33273;52.254;7.988;2023-03-23T10:18:38;11.20;96.40
47532;DHT22;33273;52.254;7.988;2023-03-23T10:21:13;11.20;98.40
47532;DHT22;33273;52.254;7.988;2023-03-23T10:23:59;11.10;97.40
47532;DHT22;33273;52.254;7.988;2023-03-23T10:31:45;10.80;96.90
47532;DHT22;33273;52.254;7.988;2023-03-23T10:39:54;11.00;97.40
47532;DHT22;33273;52.254;7.988;2023-03-23T10:42:28;11.00;97.80
47532;DHT22;33273;52.254;7.988;2023-03-23T10:45:00;11.00;97.60
47532;DHT22;33273;52.254;7.988;2023-03-23T10:47:29;11.10;98.40
47532;DHT22;33273;52.254;7.988;2023-03-23T10:50:00;11.10;99.00
47532;DHT22;33273;52.254;7.988;2023-03-23T10:52:41;11.20;98.30
47532;DHT22;33273;52.254;7.988;2023-03-23T10:55:24;11.10;97.30
47532;DHT22;33273;52.254;7.988;2023-03-23T10:58:07;11.10;98.30
47532;DHT22;33273;52.254;7.988;2023-03-23T11:00:41;11.10;98.00
47532;DHT22;33273;52.254;7.988;2023-03-23T11:06:02;11.20;97.50
47532;DHT22;33273;52.254;7.988;2023-03-23T11:08:31;11.30;97.10
47532;DHT22;33273;52.254;7.988;2023-03-23T11:11:18;11.20;95.20
47532;DHT22;33273;52.254;7.988;2023-03-23T11:13:46;11.20;95.30
47532;DHT22;33273;52.254;7.988;2023-03-23T11:16:28;11.30;94.80
47532;DHT22;33273;52.254;7.988;2023-03-23T11:18:59;11.40;95.00
47532;DHT22;33273;52.254;7.988;2023-03-23T11:21:26;11.40;94.90
47532;DHT22;33273;52.254;7.988;2023-03-23T11:24:01;11.50;92.20
47532;DHT22;33273;52.254;7.988;2023-03-23T11:26:36;11.40;93.40
47532;DHT22;33273;52.254;7.988;2023-03-23T11:31:44;11.60;96.20
47532;DHT22;33273;52.254;7.988;2023-03-23T11:34:22;11.60;95.80
47532;DHT22;33273;52.254;7.988;2023-03-23T11:40:02;11.60;90.60
47532;DHT22;33273;52.254;7.988;2023-03-23T11:42:50;11.60;89.40
47532;DHT22;33273;52.254;7.988;2023-03-23T11:45:35;11.50;89.30
47532;DHT22;33273;52.254;7.988;2023-03-23T11:51:05;11.60;87.30
47532;DHT22;33273;52.254;7.988;2023-03-23T11:56:31;11.50;82.40
47532;DHT22;33273;52.254;7.988;2023-03-23T11:59:02;11.50;81.90
47532;DHT22;33273;52.254;7.988;2023-03-23T12:01:50;11.60;82.10
47532;DHT22;33273;52.254;7.988;2023-03-23T12:04:55;11.60;80.80
47532;DHT22;33273;52.254;7.988;2023-03-23T12:31:27;12.50;73.30
47532;DHT22;33273;52.254;7.988;2023-03-23T12:33:59;12.60;73.50
47532;DHT22;33273;52.254;7.988;2023-03-23T12:39:06;12.70;71.40
47532;DHT22;33273;52.254;7.988;2023-03-23T12:44:43;12.90;72.70
47532;DHT22;33273;52.254;7.988;2023-03-23T12:47:35;13.10;71.60
47532;DHT22;33273;52.254;7.988;2023-03-23T12:50:41;13.20;70.50
47532;DHT22;33273;52.254;7.988;2023-03-23T12:53:33;13.40;71.00
47532;DHT22;33273;52.254;7.988;2023-03-23T12:56:32;13.50;70.00
47532;DHT22;33273;52.254;7.988;2023-03-23T13:02:33;13.60;65.00
47532;DHT22;33273;52.254;7.988;2023-03-23T13:05:02;13.50;65.50
47532;DHT22;33273;52.254;7.988;2023-03-23T13:07:49;13.50;66.40
47532;DHT22;33273;52.254;7.988;2023-03-23T13:10:29;13.60;65.90
47532;DHT22;33273;52.254;7.988;2023-03-23T13:13:01;13.60;64.60
47532;DHT22;33273;52.254;7.988;2023-03-23T13:18:40;13.60;63.20
47532;DHT22;33273;52.254;7.988;2023-03-23T13:23:55;13.60;63.70
47532;DHT22;33273;52.254;7.988;2023-03-23T13:26:23;13.70;63.40
47532;DHT22;33273;52.254;7.988;2023-03-23T13:29:09;13.70;63.40
47532;DHT22;33273;52.254;7.988;2023-03-23T13:31:40;13.80;63.30
47532;DHT22;33273;52.254;7.988;2023-03-23T13:34:34;13.90;61.60
47532;DHT22;33273;52.254;7.988;2023-03-23T13:37:04;13.90;61.20
47532;DHT22;33273;52.254;7.988;2023-03-23T13:39:35;13.90;59.10
47532;DHT22;33273;52.254;7.988;2023-03-23T13:54:50;14.10;60.00
47532;DHT22;33273;52.254;7.988;2023-03-23T13:57:25;14.10;60.30
47532;DHT22;33273;52.254;7.988;2023-03-23T14:00:04;14.20;60.80
47532;DHT22;33273;52.254;7.988;2023-03-23T14:02:41;14.30;60.60
47532;DHT22;33273;52.254;7.988;2023-03-23T14:08:02;14.40;59.00
47532;DHT22;33273;52.254;7.988;2023-03-23T14:10:34;14.40;58.20
47532;DHT22;33273;52.254;7.988;2023-03-23T14:13:04;14.40;59.00
47532;DHT22;33273;52.254;7.988;2023-03-23T14:15:40;14.30;59.50
47532;DHT22;33273;52.254;7.988;2023-03-23T14:18:11;14.40;59.60
47532;DHT22;33273;52.254;7.988;2023-03-23T14:20:38;14.40;58.50
47532;DHT22;33273;52.254;7.988;2023-03-23T14:23:05;14.40;59.50
47532;DHT22;33273;52.254;7.988;2023-03-23T14:25:31;14.30;58.90
47532;DHT22;33273;52.254;7.988;2023-03-23T14:27:58;14.30;58.80
47532;DHT22;33273;52.254;7.988;2023-03-23T14:30:25;14.40;59.50
47532;DHT22;33273;52.254;7.988;2023-03-23T14:32:54;14.50;58.60
47532;DHT22;33273;52.254;7.988;2023-03-23T14:35:40;14.50;59.00
47532;DHT22;33273;52.254;7.988;2023-03-23T14:38:17;14.60;59.00
47532;DHT22;33273;52.254;7.988;2023-03-23T14:40:43;14.60;57.80
47532;DHT22;33273;52.254;7.988;2023-03-23T14:43:11;14.60;57.60
47532;DHT22;33273;52.254;7.988;2023-03-23T14:45:39;14.50;55.60
47532;DHT22;33273;52.254;7.988;2023-03-23T14:48:06;14.40;56.80
47532;DHT22;33273;52.254;7.988;2023-03-23T14:50:39;14.40;57.40
47532;DHT22;33273;52.254;7.988;2023-03-23T14:53:19;14.40;58.40
47532;DHT22;33273;52.254;7.988;2023-03-23T14:55:50;14.40;59.50
47532;DHT22;33273;52.254;7.988;2023-03-23T14:58:19;14.40;59.70
47532;DHT22;33273;52.254;7.988;2023-03-23T15:01:07;14.30;59.50
47532;DHT22;33273;52.254;7.988;2023-03-23T15:03:38;14.20;60.20
47532;DHT22;33273;52.254;7.988;2023-03-23T15:06:15;14.20;60.20
47532;DHT22;33273;52.254;7.988;2023-03-23T15:08:43;14.20;60.40
47532;DHT22;33273;52.254;7.988;2023-03-23T15:11:20;14.10;60.30
47532;DHT22;33273;52.254;7.988;2023-03-23T15:13:51;14.00;60.50
47532;DHT22;33273;52.254;7.988;2023-03-23T15:16:26;14.10;60.00
47532;DHT22;33273;52.254;7.988;2023-03-23T15:19:10;14.10;60.00
47532;DHT22;33273;52.254;7.988;2023-03-23T15:21:57;14.00;61.20
47532;DHT22;33273;52.254;7.988;2023-03-23T15:24:37;13.90;60.70
47532;DHT22;33273;52.254;7.988;2023-03-23T15:27:17;13.80;60.50
47532;DHT22;33273;52.254;7.988;2023-03-23T15:29:50;13.70;61.10
47532;DHT22;33273;52.254;7.988;2023-03-23T15:32:27;13.70;61.30
47532;DHT22;33273;52.254;7.988;2023-03-23T15:34:55;13.70;61.90
47532;DHT22;33273;52.254;7.988;2023-03-23T15:37:26;13.80;61.80
47532;DHT22;33273;52.254;7.988;2023-03-23T15:39:54;13.70;61.70
47532;DHT22;33273;52.254;7.988;2023-03-23T15:42:32;13.60;62.40
47532;DHT22;33273;52.254;7.988;2023-03-23T15:47:47;13.40;64.70
47532;DHT22;33273;52.254;7.988;2023-03-23T15:52:51;13.20;66.60
47532;DHT22;33273;52.254;7.988;2023-03-23T15:55:24;13.00;66.60
47532;DHT22;33273;52.254;7.988;2023-03-23T15:57:52;12.80;67.60
47532;DHT22;33273;52.254;7.988;2023-03-23T16:00:20;12.70;69.90
47532;DHT22;33273;52.254;7.988;2023-03-23T16:02:51;12.60;72.00
47532;DHT22;33273;52.254;7.988;2023-03-23T16:05:17;12.60;74.00
47532;DHT22;33273;52.254;7.988;2023-03-23T16:07:43;12.60;74.90
47532;DHT22;33273;52.254;7.988;2023-03-23T16:10:17;12.60;75.70
47532;DHT22;33273;52.254;7.988;2023-03-23T16:12:44;12.60;76.00
47532;DHT22;33273;52.254;7.988;2023-03-23T16:15:11;12.60;76.70
47532;DHT22;33273;52.254;7.988;2023-03-23T16:17:37;12.60;78.10
47532;DHT22;33273;52.254;7.988;2023-03-23T16:20:14;12.50;79.30
47532;DHT22;33273;52.254;7.988;2023-03-23T16:22:42;12.50;80.40
47532;DHT22;33273;52.254;7.988;2023-03-23T16:25:08;12.60;83.10
47532;DHT22;33273;52.254;7.988;2023-03-23T16:27:35;12.60;85.10
47532;DHT22;33273;52.254;7.988;2023-03-23T16:30:07;12.60;83.40
47532;DHT22;33273;52.254;7.988;2023-03-23T16:32:34;12.50;83.30
47532;DHT22;33273;52.254;7.988;2023-03-23T16:35:00;12.50;83.60
47532;DHT22;33273;52.254;7.988;2023-03-23T16:37:27;12.60;83.80
47532;DHT22;33273;52.254;7.988;2023-03-23T16:39:57;12.60;83.60
47532;DHT22;33273;52.254;7.988;2023-03-23T16:42:24;12.60;84.20
47532;DHT22;33273;52.254;7.988;2023-03-23T16:44:50;12.60;83.80
47532;DHT22;33273;52.254;7.988;2023-03-23T16:47:16;12.60;83.60
47532;DHT22;33273;52.254;7.988;2023-03-23T16:49:43;12.60;83.30
47532;DHT22;33273;52.254;7.988;2023-03-23T16:52:12;12.60;83.20
47532;DHT22;33273;52.254;7.988;2023-03-23T16:54:38;12.70;82.10
47532;DHT22;33273;52.254;7.988;2023-03-23T16:57:04;12.70;81.30
47532;DHT22;33273;52.254;7.988;2023-03-23T16:59:31;12.70;80.50
47532;DHT22;33273;52.254;7.988;2023-03-23T17:01:57;12.70;80.20
47532;DHT22;33273;52.254;7.988;2023-03-23T17:04:29;12.80;79.80
47532;DHT22;33273;52.254;7.988;2023-03-23T17:06:55;12.70;80.40
47532;DHT22;33273;52.254;7.988;2023-03-23T17:09:26;12.70;80.70
47532;DHT22;33273;52.254;7.988;2023-03-23T17:11:53;12.70;80.90
47532;DHT22;33273;52.254;7.988;2023-03-23T17:14:22;12.70;81.10
47532;DHT22;33273;52.254;7.988;2023-03-23T17:16:48;12.80;81.30
47532;DHT22;33273;52.254;7.988;2023-03-23T17:19:29;12.80;81.20
47532;DHT22;33273;52.254;7.988;2023-03-23T17:22:02;12.80;80.70
47532;DHT22;33273;52.254;7.988;2023-03-23T17:24:37;12.80;80.30
47532;DHT22;33273;52.254;7.988;2023-03-23T17:27:39;12.70;79.40
47532;DHT22;33273;52.254;7.988;2023-03-23T17:30:07;12.80;79.30
47532;DHT22;33273;52.254;7.988;2023-03-23T17:32:33;12.70;79.10
47532;DHT22;33273;52.254;7.988;2023-03-23T17:34:59;12.70;79.10
47532;DHT22;33273;52.254;7.988;2023-03-23T17:37:26;12.60;79.10
47532;DHT22;33273;52.254;7.988;2023-03-23T17:39:52;12.60;79.00
47532;DHT22;33273;52.254;7.988;2023-03-23T17:42:19;12.60;79.00
47532;DHT22;33273;52.254;7.988;2023-03-23T17:44:45;12.60;78.70
47532;DHT22;33273;52.254;7.988;2023-03-23T17:47:11;12.60;78.60
47532;DHT22;33273;52.254;7.988;2023-03-23T17:49:37;12.50;79.00
47532;DHT22;33273;52.254;7.988;2023-03-23T17:52:04;12.50;79.50
47532;DHT22;33273;52.254;7.988;2023-03-23T17:54:30;12.40;80.20
47532;DHT22;33273;52.254;7.988;2023-03-23T17:56:56;12.30;80.80
47532;DHT22;33273;52.254;7.988;2023-03-23T17:59:26;12.30;81.60
47532;DHT22;33273;52.254;7.988;2023-03-23T18:01:53;12.30;81.80
47532;DHT22;33273;52.254;7.988;2023-03-23T18:04:21;12.30;82.30
47532;DHT22;33273;52.254;7.988;2023-03-23T18:06:47;12.20;82.80
47532;DHT22;33273;52.254;7.988;2023-03-23T18:09:13;12.30;83.30